createdAt,value
2023-02-08T00:01:00.276Z,2.60
2023-02-08T00:10:51.735Z,2.70
2023-02-08T00:13:19.292Z,2.50
2023-02-08T00:15:47.160Z,2.50
2023-02-08T00:18:14.877Z,2.60
2023-02-08T00:20:43.544Z,2.10
2023-02-08T00:23:12.086Z,3.10
2023-02-08T00:25:41.233Z,2.50
2023-02-08T00:28:13.605Z,2.40
2023-02-08T00:30:43.723Z,2.50
2023-02-08T00:33:11.982Z,2.30
2023-02-08T00:35:39.330Z,2.50
2023-02-08T00:38:06.682Z,2.30
2023-02-08T00:40:33.982Z,2.30
2023-02-08T00:45:30.445Z,2.20
2023-02-08T00:47:57.777Z,2.00
2023-02-08T00:50:25.362Z,2.10
2023-02-08T00:52:52.736Z,1.90
2023-02-08T00:55:20.291Z,1.90
2023-02-08T00:57:47.751Z,2.30
2023-02-08T01:00:15.217Z,2.20
2023-02-08T01:02:42.781Z,1.80
2023-02-08T01:07:40.569Z,2.00
2023-02-08T01:10:12.325Z,2.10
2023-02-08T01:12:39.786Z,1.90
2023-02-08T01:15:08.055Z,2.50
2023-02-08T01:17:36.821Z,1.80
2023-02-08T01:20:04.476Z,1.90
2023-02-08T01:22:32.007Z,1.80
2023-02-08T01:25:01.587Z,1.80
2023-02-08T01:27:30.242Z,1.50
2023-02-08T01:29:57.524Z,1.80
2023-02-08T01:39:48.031Z,1.80
2023-02-08T01:42:17.241Z,2.90
2023-02-08T01:45:15.775Z,2.90
2023-02-08T01:47:45.319Z,1.50
2023-02-08T01:50:14.421Z,1.30
2023-02-08T01:52:44.487Z,1.50
2023-02-08T01:55:23.651Z,1.40
2023-02-08T01:57:54.876Z,1.10
2023-02-08T02:00:23.629Z,1.20
2023-02-08T02:02:54.563Z,1.20
2023-02-08T02:05:24.881Z,1.10
2023-02-08T02:07:54.306Z,1.40
2023-02-08T02:10:25.371Z,1.10
2023-02-08T02:12:55.533Z,1.30
2023-02-08T02:15:22.955Z,1.30
2023-02-08T02:17:50.364Z,1.10
2023-02-08T02:20:37.964Z,1.10
2023-02-08T02:25:53.210Z,1.10
2023-02-08T02:28:38.951Z,1.00
2023-02-08T02:31:15.440Z,1.10
2023-02-08T02:34:09.640Z,1.10
2023-02-08T02:36:43.731Z,1.00
2023-02-08T02:39:13.999Z,1.10
2023-02-08T02:42:14.867Z,1.20
2023-02-08T02:45:13.179Z,0.90
2023-02-08T02:47:56.096Z,1.00
2023-02-08T02:50:53.879Z,0.90
2023-02-08T02:53:41.937Z,1.70
2023-02-08T02:56:30.204Z,0.80
2023-02-08T02:59:02.702Z,0.70
2023-02-08T03:01:30.292Z,1.10
2023-02-08T03:03:58.483Z,0.70
2023-02-08T03:06:39.602Z,3.00
2023-02-08T03:09:44.624Z,0.60
2023-02-08T03:12:34.068Z,0.60
2023-02-08T03:15:34.998Z,0.60
2023-02-08T03:18:02.246Z,0.60
2023-02-08T03:20:33.067Z,0.70
2023-02-08T03:23:15.208Z,1.00
2023-02-08T03:25:54.482Z,0.30
2023-02-08T03:28:48.131Z,0.50
2023-02-08T03:31:26.915Z,0.50
2023-02-08T03:34:13.135Z,0.40
2023-02-08T03:37:00.111Z,0.60
2023-02-08T03:39:30.096Z,0.30
2023-02-08T03:42:02.832Z,0.30
2023-02-08T03:44:37.173Z,0.60
2023-02-08T03:47:14.069Z,0.40
2023-02-08T03:49:42.531Z,0.40
2023-02-08T03:52:11.331Z,0.30
2023-02-08T03:54:45.660Z,0.30
2023-02-08T03:57:18.903Z,0.20
2023-02-08T03:59:52.834Z,0.10
2023-02-08T04:02:23.666Z,0.60
2023-02-08T04:04:52.076Z,0.00
2023-02-08T04:07:19.962Z,0.10
2023-02-08T04:09:47.384Z,0.20
2023-02-08T04:12:15.191Z,0.00
2023-02-08T04:14:42.452Z,0.00
2023-02-08T04:17:09.751Z,-0.10
2023-02-08T04:19:37.228Z,0.00
2023-02-08T04:22:04.450Z,-0.20
2023-02-08T04:24:31.852Z,-0.30
2023-02-08T04:26:59.094Z,0.50
2023-02-08T04:29:27.261Z,-0.20
2023-02-08T04:31:54.626Z,1.00
2023-02-08T04:34:22.161Z,-0.50
2023-02-08T04:36:49.545Z,-0.40
2023-02-08T04:39:16.916Z,-0.30
2023-02-08T04:41:44.216Z,-0.40
2023-02-08T04:44:11.563Z,-0.40
2023-02-08T04:46:38.894Z,-0.40
2023-02-08T04:49:06.249Z,0.00
2023-02-08T04:51:33.530Z,0.30
2023-02-08T04:54:01.010Z,-0.30
2023-02-08T04:56:28.276Z,-0.40
2023-02-08T04:58:55.524Z,-0.30
2023-02-08T05:01:22.786Z,-0.60
2023-02-08T05:03:50.186Z,-0.70
2023-02-08T05:06:17.485Z,0.40
2023-02-08T05:08:44.753Z,0.00
2023-02-08T05:11:12.091Z,0.40
2023-02-08T05:13:39.595Z,-0.40
2023-02-08T05:16:07.119Z,-0.50
2023-02-08T05:18:34.458Z,-0.40
2023-02-08T05:21:01.829Z,-0.40
2023-02-08T05:23:29.321Z,-0.30
2023-02-08T05:25:56.597Z,-0.40
2023-02-08T05:28:23.931Z,-0.40
2023-02-08T05:30:52.090Z,-0.40
2023-02-08T05:33:19.465Z,-0.30
2023-02-08T05:35:46.789Z,-0.40
2023-02-08T05:38:14.231Z,-0.60
2023-02-08T05:40:41.784Z,-0.30
2023-02-08T05:43:09.188Z,0.10
2023-02-08T05:45:36.521Z,-0.50
2023-02-08T05:48:03.914Z,-0.50
2023-02-08T05:50:32.150Z,-0.50
2023-02-08T05:52:59.461Z,-0.40
2023-02-08T05:55:28.287Z,-0.60
2023-02-08T05:57:55.641Z,-0.70
2023-02-08T06:00:23.015Z,-0.80
2023-02-08T06:02:50.424Z,-0.70
2023-02-08T06:05:17.801Z,-0.70
2023-02-08T06:07:45.216Z,-0.80
2023-02-08T06:10:12.513Z,-0.90
2023-02-08T06:12:39.931Z,-0.90
2023-02-08T06:15:07.495Z,-0.90
2023-02-08T06:17:34.861Z,-1.00
2023-02-08T06:20:02.210Z,-1.00
2023-02-08T06:22:29.663Z,-1.10
2023-02-08T06:24:57.103Z,-0.10
2023-02-08T06:27:24.396Z,-1.10
2023-02-08T06:29:51.852Z,-1.00
2023-02-08T06:32:19.329Z,-0.70
2023-02-08T06:34:48.239Z,-0.90
2023-02-08T06:37:15.603Z,-0.90
2023-02-08T06:39:43.017Z,-1.50
2023-02-08T06:42:10.953Z,0.10
2023-02-08T06:47:18.672Z,-1.10
2023-02-08T06:49:45.977Z,-0.90
2023-02-08T06:52:13.288Z,-0.90
2023-02-08T06:57:08.431Z,-1.10
2023-02-08T06:59:35.747Z,-1.10
2023-02-08T07:02:03.097Z,-1.20
2023-02-08T07:04:30.849Z,-1.10
2023-02-08T07:06:58.237Z,-1.20
2023-02-08T07:09:25.601Z,-1.20
2023-02-08T07:11:53.018Z,-1.20
2023-02-08T07:14:20.294Z,-1.20
2023-02-08T07:16:47.693Z,-1.20
2023-02-08T07:19:15.053Z,-1.10
2023-02-08T07:21:42.392Z,-1.10
2023-02-08T07:24:09.712Z,-1.20
2023-02-08T07:26:37.009Z,-1.20
2023-02-08T07:29:04.569Z,-1.20
2023-02-08T07:31:31.961Z,-1.10
2023-02-08T07:33:59.549Z,-1.20
2023-02-08T07:36:26.852Z,-1.20
2023-02-08T07:38:54.306Z,-1.20
2023-02-08T07:41:21.721Z,-1.10
2023-02-08T07:43:48.986Z,-1.40
2023-02-08T07:46:19.104Z,-1.10
2023-02-08T07:48:46.821Z,-1.10
2023-02-08T07:51:14.096Z,-1.10
2023-02-08T07:53:41.384Z,-1.00
2023-02-08T07:56:10.335Z,-1.00
2023-02-08T07:58:38.242Z,-1.00
2023-02-08T08:01:21.007Z,-1.00
2023-02-08T08:03:51.060Z,-1.00
2023-02-08T08:06:22.841Z,-1.00
2023-02-08T08:08:50.786Z,-1.00
2023-02-08T08:11:19.585Z,-1.00
2023-02-08T08:13:47.229Z,-1.10
2023-02-08T08:16:14.657Z,-1.00
2023-02-08T08:18:42.304Z,-1.00
2023-02-08T08:23:37.296Z,-0.90
2023-02-08T08:26:13.996Z,-0.80
2023-02-08T08:28:42.143Z,-0.80
2023-02-08T08:31:11.781Z,-0.80
2023-02-08T08:33:39.217Z,-1.00
2023-02-08T08:36:07.533Z,0.20
2023-02-08T08:38:35.375Z,-0.70
2023-02-08T08:41:17.991Z,-0.60
2023-02-08T08:43:45.981Z,-0.60
2023-02-08T08:46:13.721Z,-0.50
2023-02-08T08:48:41.135Z,-0.40
2023-02-08T08:51:08.566Z,-0.40
2023-02-08T08:53:37.124Z,-0.30
2023-02-08T08:56:05.187Z,-0.30
2023-02-08T08:58:33.028Z,-0.20
2023-02-08T09:01:00.779Z,-0.10
2023-02-08T09:03:29.292Z,-0.10
2023-02-08T09:05:57.293Z,-0.10
2023-02-08T09:08:24.605Z,0.00
2023-02-08T09:10:52.067Z,0.00
2023-02-08T09:13:21.201Z,0.10
2023-02-08T09:15:49.134Z,0.10
2023-02-08T09:18:16.846Z,0.20
2023-02-08T09:20:45.073Z,0.20
2023-02-08T09:23:14.456Z,0.30
2023-02-08T09:25:41.973Z,0.40
2023-02-08T09:28:09.357Z,0.50
2023-02-08T09:30:36.631Z,0.60
2023-02-08T09:33:04.120Z,0.60
2023-02-08T09:35:31.543Z,0.70
2023-02-08T09:38:02.335Z,0.80
2023-02-08T09:40:41.814Z,0.90
2023-02-08T09:43:20.131Z,1.00
2023-02-08T09:46:05.494Z,1.10
2023-02-08T09:48:36.509Z,1.10
2023-02-08T09:51:22.545Z,1.20
2023-02-08T09:53:57.120Z,1.20
2023-02-08T09:56:29.809Z,1.30
2023-02-08T09:58:59.133Z,2.40
2023-02-08T10:01:33.625Z,1.60
2023-02-08T10:04:30.475Z,1.80
2023-02-08T10:09:27.314Z,1.80
2023-02-08T10:12:17.583Z,1.80
2023-02-08T10:14:54.390Z,1.90
2023-02-08T10:17:30.487Z,3.60
2023-02-08T10:20:24.282Z,2.10
2023-02-08T10:23:11.855Z,2.20
2023-02-08T10:26:06.035Z,2.30
2023-02-08T10:28:52.651Z,2.50
2023-02-08T10:31:50.296Z,2.90
2023-02-08T10:34:44.996Z,2.70
2023-02-08T10:37:19.078Z,2.90
2023-02-08T10:39:47.908Z,3.40
2023-02-08T10:42:22.367Z,3.00
2023-02-08T10:45:24.863Z,3.40
2023-02-08T10:48:11.470Z,3.40
2023-02-08T10:50:47.386Z,3.60
2023-02-08T10:53:16.861Z,4.30
2023-02-08T10:55:46.746Z,3.80
2023-02-08T10:58:18.145Z,4.20
2023-02-08T11:00:46.915Z,4.10
2023-02-08T11:03:34.124Z,4.20
2023-02-08T11:06:03.160Z,4.40
2023-02-08T11:08:30.547Z,4.60
2023-02-08T11:11:00.300Z,4.60
2023-02-08T11:13:43.153Z,4.90
2023-02-08T11:16:22.340Z,4.80
2023-02-08T11:18:56.848Z,5.00
2023-02-08T11:21:33.627Z,5.60
2023-02-08T11:24:21.166Z,5.30
2023-02-08T11:26:50.016Z,5.50
2023-02-08T11:29:19.972Z,5.50
2023-02-08T11:32:02.460Z,5.90
2023-02-08T11:34:32.608Z,6.40
2023-02-08T11:37:04.252Z,7.30
2023-02-08T11:39:43.068Z,7.40
2023-02-08T11:42:23.552Z,7.80
2023-02-08T11:44:51.719Z,8.60
2023-02-08T11:47:29.605Z,8.90
2023-02-08T11:50:06.112Z,9.20
2023-02-08T11:52:37.086Z,9.60
2023-02-08T11:55:19.857Z,10.00
2023-02-08T11:58:09.559Z,10.30
2023-02-08T12:01:17.886Z,10.70
2023-02-08T12:03:48.240Z,11.10
2023-02-08T12:06:43.683Z,11.30
2023-02-08T12:09:55.236Z,11.60
2023-02-08T12:12:53.083Z,11.80
2023-02-08T12:15:32.572Z,12.00
2023-02-08T12:18:15.940Z,12.10
2023-02-08T12:20:47.940Z,12.30
2023-02-08T12:23:34.194Z,12.40
2023-02-08T12:26:25.745Z,12.60
2023-02-08T12:29:15.087Z,12.70
2023-02-08T12:31:49.887Z,13.00
2023-02-08T12:34:35.948Z,13.00
2023-02-08T12:37:42.138Z,13.30
2023-02-08T12:40:31.094Z,13.20
2023-02-08T12:43:27.768Z,13.20
2023-02-08T12:46:42.946Z,13.20
2023-02-08T12:49:44.036Z,13.00
2023-02-08T12:52:14.468Z,13.30
2023-02-08T12:55:03.153Z,13.20
2023-02-08T12:57:32.609Z,13.20
2023-02-08T13:00:07.398Z,13.20
2023-02-08T13:02:57.348Z,13.20
2023-02-08T13:05:33.916Z,13.30
2023-02-08T13:08:15.850Z,13.50
2023-02-08T13:10:47.184Z,14.20
2023-02-08T13:13:26.809Z,14.10
2023-02-08T13:16:00.632Z,14.00
2023-02-08T13:18:35.754Z,14.00
2023-02-08T13:21:08.379Z,14.00
2023-02-08T13:23:51.785Z,14.20
2023-02-08T13:26:27.971Z,14.20
2023-02-08T13:28:58.388Z,13.90
2023-02-08T13:31:39.394Z,14.10
2023-02-08T13:34:18.438Z,14.00
2023-02-08T13:37:00.581Z,13.80
2023-02-08T13:39:41.616Z,14.10
2023-02-08T13:42:39.711Z,14.20
2023-02-08T13:45:10.035Z,14.10
2023-02-08T13:47:45.784Z,14.30
2023-02-08T13:50:37.621Z,14.50
2023-02-08T13:53:06.490Z,14.40
2023-02-08T13:55:54.476Z,14.40
2023-02-08T13:58:22.080Z,14.40
2023-02-08T14:00:56.619Z,15.00
2023-02-08T14:03:27.365Z,14.60
2023-02-08T14:06:25.655Z,14.70
2023-02-08T14:09:19.322Z,14.80
2023-02-08T14:11:52.148Z,14.90
2023-02-08T14:14:26.812Z,15.10
2023-02-08T14:17:20.592Z,15.10
2023-02-08T14:20:06.178Z,15.00
2023-02-08T14:22:41.765Z,14.60
2023-02-08T14:25:22.551Z,14.20
2023-02-08T14:27:53.844Z,15.50
2023-02-08T14:30:31.854Z,14.40
2023-02-08T14:33:04.916Z,14.30
2023-02-08T14:35:34.284Z,14.60
2023-02-08T14:38:19.053Z,14.50
2023-02-08T14:40:59.579Z,14.60
2023-02-08T14:43:44.167Z,14.50
2023-02-08T14:46:40.494Z,14.30
2023-02-08T14:49:13.901Z,14.50
2023-02-08T14:51:53.996Z,14.40
2023-02-08T14:54:37.081Z,14.60
2023-02-08T14:57:13.864Z,14.70
2023-02-08T14:59:45.748Z,14.60
2023-02-08T15:02:24.409Z,14.60
2023-02-08T15:04:52.454Z,14.80
2023-02-08T15:07:53.855Z,14.70
2023-02-08T15:10:23.634Z,15.00
2023-02-08T15:12:54.083Z,14.90
2023-02-08T15:15:32.721Z,15.10
2023-02-08T15:18:02.050Z,15.30
2023-02-08T15:20:31.916Z,15.10
2023-02-08T15:22:59.320Z,15.30
2023-02-08T15:25:30.199Z,15.40
2023-02-08T15:28:03.558Z,15.60
2023-02-08T15:30:38.914Z,15.40
2023-02-08T15:33:18.014Z,15.50
2023-02-08T15:35:54.238Z,15.30
2023-02-08T15:38:23.338Z,15.20
2023-02-08T15:41:09.256Z,15.00
2023-02-08T15:43:38.980Z,15.10
2023-02-08T15:46:17.811Z,15.00
2023-02-08T15:48:46.880Z,15.00
2023-02-08T15:51:16.370Z,14.80
2023-02-08T15:53:46.392Z,14.70
2023-02-08T15:56:47.315Z,14.70
2023-02-08T15:59:22.484Z,14.60
2023-02-08T16:01:51.374Z,14.40
2023-02-08T16:04:19.014Z,14.20
2023-02-08T16:06:53.319Z,14.30
2023-02-08T16:12:40.271Z,14.30
2023-02-08T16:15:41.950Z,14.20
2023-02-08T16:18:34.183Z,14.00
2023-02-08T16:21:13.860Z,13.90
2023-02-08T16:24:00.387Z,13.70
2023-02-08T16:26:43.910Z,13.50
2023-02-08T16:29:37.735Z,13.20
2023-02-08T16:32:20.747Z,12.80
2023-02-08T16:34:48.561Z,12.50
2023-02-08T16:37:33.213Z,11.80
2023-02-08T16:40:22.400Z,11.80
2023-02-08T16:42:49.988Z,11.60
2023-02-08T16:45:19.968Z,11.40
2023-02-08T16:47:56.883Z,10.80
2023-02-08T16:50:28.150Z,10.40
2023-02-08T16:53:00.792Z,10.20
2023-02-08T16:55:31.553Z,9.60
2023-02-08T16:57:59.718Z,9.80
2023-02-08T17:00:31.355Z,9.20
2023-02-08T17:02:59.548Z,8.90
2023-02-08T17:05:30.197Z,8.90
2023-02-08T17:07:58.810Z,8.50
2023-02-08T17:10:31.522Z,8.20
2023-02-08T17:13:17.447Z,8.40
2023-02-08T17:15:48.765Z,8.20
2023-02-08T17:18:16.338Z,8.00
2023-02-08T17:20:44.399Z,7.90
2023-02-08T17:23:12.862Z,8.10
2023-02-08T17:25:42.093Z,7.70
2023-02-08T17:28:17.139Z,7.50
2023-02-08T17:30:44.963Z,7.20
2023-02-08T17:33:18.309Z,7.80
2023-02-08T17:35:48.588Z,7.30
2023-02-08T17:38:16.268Z,7.20
2023-02-08T17:40:44.484Z,7.20
2023-02-08T17:43:12.965Z,7.10
2023-02-08T17:45:42.410Z,7.20
2023-02-08T17:48:10.214Z,8.00
2023-02-08T17:50:37.525Z,7.10
2023-02-08T17:53:04.778Z,7.20
2023-02-08T17:57:59.720Z,6.90
2023-02-08T18:00:27.066Z,6.70
2023-02-08T18:02:55.738Z,6.60
2023-02-08T18:05:26.502Z,6.60
2023-02-08T18:07:55.939Z,6.40
2023-02-08T18:10:24.167Z,6.30
2023-02-08T18:12:51.634Z,6.80
2023-02-08T18:15:21.334Z,6.60
2023-02-08T18:17:50.385Z,6.40
2023-02-08T18:20:18.301Z,6.70
2023-02-08T18:22:46.189Z,6.20
2023-02-08T18:25:14.364Z,6.10
2023-02-08T18:27:41.885Z,7.20
2023-02-08T18:30:10.526Z,5.70
2023-02-08T18:32:38.275Z,6.00
2023-02-08T18:35:07.385Z,6.50
2023-02-08T18:37:36.214Z,5.90
2023-02-08T18:40:05.996Z,5.80
2023-02-08T18:42:35.868Z,5.80
2023-02-08T18:45:05.111Z,5.80
2023-02-08T18:47:32.758Z,5.80
2023-02-08T18:50:00.043Z,5.80
2023-02-08T18:54:56.091Z,5.90
2023-02-08T18:57:23.359Z,5.60
2023-02-08T18:59:50.784Z,6.30
2023-02-08T19:02:21.196Z,5.50
2023-02-08T19:04:49.166Z,5.80
2023-02-08T19:07:16.651Z,5.60
2023-02-08T19:09:44.077Z,5.50
2023-02-08T19:12:15.429Z,6.80
2023-02-08T19:14:43.942Z,5.20
2023-02-08T19:17:13.676Z,5.30
2023-02-08T19:19:42.309Z,5.20
2023-02-08T19:22:09.768Z,5.30
2023-02-08T19:24:37.073Z,5.20
2023-02-08T19:27:04.967Z,5.20
2023-02-08T19:32:01.766Z,5.10
2023-02-08T19:34:29.350Z,6.50
2023-02-08T19:36:56.741Z,5.40
2023-02-08T19:39:26.551Z,5.00
2023-02-08T19:41:54.940Z,6.00
2023-02-08T19:44:22.821Z,5.00
2023-02-08T19:46:52.845Z,4.90
2023-02-08T19:51:48.560Z,4.80
2023-02-08T19:54:18.148Z,4.50
2023-02-08T19:56:46.489Z,4.80
2023-02-08T19:59:25.968Z,5.60
2023-02-08T20:01:54.342Z,4.70
2023-02-08T20:04:22.631Z,4.80
2023-02-08T20:06:54.982Z,4.80
2023-02-08T20:11:57.225Z,4.60
2023-02-08T20:14:28.784Z,4.60
2023-02-08T20:16:56.702Z,4.40
2023-02-08T20:19:24.612Z,4.30
2023-02-08T20:21:52.505Z,4.80
2023-02-08T20:24:20.325Z,4.90
2023-02-08T20:26:48.664Z,4.70
2023-02-08T20:29:17.238Z,4.40
2023-02-08T20:31:48.639Z,4.30
2023-02-08T20:34:18.693Z,4.20
2023-02-08T20:37:04.548Z,4.50
2023-02-08T20:39:34.199Z,4.20
2023-02-08T20:42:01.575Z,4.30
2023-02-08T20:44:29.019Z,4.40
2023-02-08T20:46:56.332Z,4.10
2023-02-08T20:49:25.589Z,4.40
2023-02-08T20:51:54.179Z,4.20
2023-02-08T20:54:24.470Z,4.20
2023-02-08T20:56:53.078Z,4.20
2023-02-08T20:59:21.105Z,3.80
2023-02-08T21:01:48.957Z,4.10
2023-02-08T21:04:17.945Z,4.40
2023-02-08T21:06:46.253Z,4.10
2023-02-08T21:09:16.004Z,4.10
2023-02-08T21:11:44.611Z,4.00
2023-02-08T21:14:19.355Z,3.90
2023-02-08T21:16:49.679Z,4.20
2023-02-08T21:19:17.509Z,6.80
2023-02-08T21:21:44.887Z,3.70
2023-02-08T21:24:12.270Z,3.60
2023-02-08T21:26:39.599Z,3.80
2023-02-08T21:29:07.339Z,3.80
2023-02-08T21:31:36.505Z,4.00
2023-02-08T21:34:04.899Z,3.60
2023-02-08T21:36:33.249Z,3.80
2023-02-08T21:39:00.752Z,3.60
2023-02-08T21:41:30.400Z,3.60
2023-02-08T21:44:00.243Z,4.40
2023-02-08T21:46:28.437Z,3.50
2023-02-08T21:49:15.337Z,4.70
2023-02-08T21:52:02.660Z,3.30
2023-02-08T21:54:42.470Z,3.50
2023-02-08T21:57:09.703Z,3.40
2023-02-08T21:59:37.775Z,3.50
2023-02-08T22:02:27.761Z,3.50
2023-02-08T22:05:16.223Z,3.50
2023-02-08T22:07:49.674Z,3.50
2023-02-08T22:10:19.728Z,3.40
2023-02-08T22:12:47.646Z,3.40
2023-02-08T22:15:17.840Z,3.50
2023-02-08T22:17:45.613Z,3.40
2023-02-08T22:20:14.892Z,3.40
2023-02-08T22:22:42.329Z,3.40
2023-02-08T22:25:09.713Z,3.20
2023-02-08T22:27:39.100Z,3.40
2023-02-08T22:30:08.231Z,3.10
2023-02-08T22:32:38.869Z,3.40
2023-02-08T22:35:07.625Z,3.40
2023-02-08T22:37:35.613Z,3.30
2023-02-08T22:40:04.065Z,3.30
2023-02-08T22:42:31.744Z,3.20
2023-02-08T22:44:59.497Z,3.70
2023-02-08T22:47:26.874Z,3.40
2023-02-08T22:49:57.509Z,3.20
2023-02-08T22:52:25.926Z,3.20
2023-02-08T22:54:53.851Z,3.50
2023-02-08T22:57:21.150Z,3.90
2023-02-08T22:59:48.479Z,3.20
2023-02-08T23:02:17.865Z,3.20
2023-02-08T23:04:45.209Z,3.10
2023-02-08T23:07:12.490Z,3.10
2023-02-08T23:09:39.781Z,3.20
2023-02-08T23:12:07.272Z,3.20
2023-02-08T23:14:35.535Z,3.10
2023-02-08T23:17:02.818Z,3.50
2023-02-08T23:19:30.227Z,3.20
2023-02-08T23:22:00.635Z,3.20
2023-02-08T23:24:28.046Z,3.20
2023-02-08T23:26:55.378Z,3.20
2023-02-08T23:29:22.868Z,3.20
2023-02-08T23:31:50.283Z,3.30
2023-02-08T23:34:18.090Z,3.30
2023-02-08T23:36:45.546Z,3.30
2023-02-08T23:41:40.516Z,3.20
2023-02-08T23:44:07.806Z,3.30
2023-02-08T23:46:35.134Z,3.30
2023-02-08T23:49:02.425Z,3.10
2023-02-08T23:51:29.929Z,4.30
2023-02-08T23:53:57.232Z,4.40
2023-02-08T23:56:26.897Z,3.50
2023-02-08T23:58:57.302Z,3.30
